EGLCEDSB

Guest
Details From EGLC - London City
To EDSB - Karlsruhe Baden Baden
Flight Number -
Tags decoded
Created
Modified
Stats Distance 355 nm / 658 km
Max Altitude 0 ft / 0 m
Waypoints 6
Social Downloads 1
Likes 0
Share VATSIM

Download

Looking for another format? Having issues loading an existing format? Contact us
Advertisement - Login to hide

Notes

Requested: EGLC DVR ING CMB MMD SAD EDSB

Route

EGLC DVR ING CMB MMD EDSB

ID Type Via Altitude Latitude Longitude Leg Dist Tot Dist Heading (true) Name
O EGLC APT - 0 ft / 0 m 51.50523˚ 0.05518˚ - 0 nm - London City
DVR VOR - 0 ft / 0 m 51.16250˚ 1.35917˚ 53 nm 53 nm 112° / 113° DOVER VOR-DME
ING NDB - 0 ft / 0 m 50.88317˚ 1.74181˚ 22 nm 75 nm 139° / 139° ST INGLEVERT NDB
CMB VOR - 0 ft / 0 m 50.22814˚ 3.15150˚ 66 nm 141 nm 126° / 127° CAMBRAI EPINOY VORTAC
MMD VOR - 0 ft / 0 m 49.39125˚ 5.12442˚ 91 nm 233 nm 123° / 124° MONTMEDY-Dun sur Meuse VOR
O EDSB APT - 0 ft / 0 m 48.77926˚ 8.08064˚ 121 nm 355 nm 106° / 109° Karlsruhe Baden Baden

Altitude Profile

Advertisement - Login to hide

Weather


0- 5 10 15 20 25 30 35+ Temperature / ° C

Clouds and Precipitation
Forecast for 2017-12-15 18:00 UTC. Updated an hour ago

Ground ~20,000 ft ~40,000 ft Winds

EGLC

Details ICAO EGLC (LCY)
Name London City
Region United Kingdom
Timezone Europe/London (UTC+0.0)
Stats Elevation 19 ft / 6 m (AMSL)
Location 51.505231° 0.055175°
Runways 1
Magnetic Variation 0.384° W

METAR

EGLC 151620Z AUTO 30009KT 280V010 9999 BKN020 06/02 Q1003

Decode

TAF

Not found

Departure Runways

ID Width Length Bearing (true) Bearing (mag) Surface Threshold Offset Overrun Length
09 98 ft / 30 m 4,931 ft / 1,503 m 92.89° 93.27° Concrete 322 ft / 98 m 164 ft / 50 m
27 98 ft / 30 m 4,931 ft / 1,503 m 272.91° 273.29° Concrete 243 ft / 74 m 279 ft / 85 m

EDSB

Details ICAO EDSB (FKB)
Name Karlsruhe Baden Baden
Region Germany - Civil
Timezone Europe/Berlin (UTC+1.0)
Stats Elevation 408 ft / 124 m (AMSL)
Location 48.779257° 8.080642°
Runways 1
Magnetic Variation 2.223° E

METAR

EDSB 151550Z 21007KT 9999 VCSH FEW028 SCT070 03/00 Q0999

Decode

TAF

TAF EDSB 151100Z 1512/1612 20007KT 9999 BKN025 TEMPO 1512/1514 21015G25KT TEMPO 1512/1521 SHRASN BKN014CB TEMPO 1521/1612 2500 SHSNRA BKN005CB

Decode

Destination Runways

ID Width Length Bearing (true) Bearing (mag) Surface Threshold Offset Overrun Length
03 148 ft / 45 m 9,799 ft / 2,987 m 31.69° 29.47° Asphalt 830 ft / 253 m 115 ft / 35 m
21 148 ft / 45 m 9,799 ft / 2,987 m 211.70° 209.48° Asphalt 830 ft / 253 m 115 ft / 35 m

Approach Navaids

Runway Type Ident Frequency Range Bearing (true) Bearing (mag) Slope Elevation
03 Localiser IKBE 109.95 MHz 18 nm / 33 km 31.45° 29.23° - 408 ft / 124 m (AMSL)
03 Glidescope IKBE 109.95 MHz 10 nm / 19 km 31.70° 29.47° 3.00° 456 ft / 139 m (AMSL)
21 Localiser IKBW 108.75 MHz 18 nm / 33 km 211.94° 209.71° - 405 ft / 123 m (AMSL)
21 Glidescope IKBW 108.75 MHz 10 nm / 19 km 211.70° 209.47° 3.00° 408 ft / 124 m (AMSL)

Popular Alternatives